sensor_id;sensor_type;location;lat;lon;timestamp;temperature;humidity
68867;SHT30;56451;44.804;20.476;2023-05-21T00:00:25;20.21;56.24
68867;SHT30;56451;44.804;20.476;2023-05-21T00:02:51;20.20;56.28
68867;SHT30;56451;44.804;20.476;2023-05-21T00:05:17;20.17;56.37
68867;SHT30;56451;44.804;20.476;2023-05-21T00:07:43;20.21;56.27
68867;SHT30;56451;44.804;20.476;2023-05-21T00:10:12;20.21;56.13
68867;SHT30;56451;44.804;20.476;2023-05-21T00:12:37;20.21;56.12
68867;SHT30;56451;44.804;20.476;2023-05-21T00:15:04;20.20;56.09
68867;SHT30;56451;44.804;20.476;2023-05-21T00:17:31;20.24;55.96
68867;SHT30;56451;44.804;20.476;2023-05-21T00:19:57;20.21;55.73
68867;SHT30;56451;44.804;20.476;2023-05-21T00:22:22;20.23;55.66
68867;SHT30;56451;44.804;20.476;2023-05-21T00:24:48;20.27;55.47
68867;SHT30;56451;44.804;20.476;2023-05-21T00:27:14;20.21;55.52
68867;SHT30;56451;44.804;20.476;2023-05-21T00:29:40;20.24;55.44
68867;SHT30;56451;44.804;20.476;2023-05-21T00:32:06;20.30;55.42
68867;SHT30;56451;44.804;20.476;2023-05-21T00:34:32;20.24;55.50
68867;SHT30;56451;44.804;20.476;2023-05-21T00:36:58;20.23;55.57
68867;SHT30;56451;44.804;20.476;2023-05-21T00:39:27;20.28;55.50
68867;SHT30;56451;44.804;20.476;2023-05-21T00:41:53;20.28;55.48
68867;SHT30;56451;44.804;20.476;2023-05-21T00:44:21;20.28;55.39
68867;SHT30;56451;44.804;20.476;2023-05-21T00:46:49;20.30;55.35
68867;SHT30;56451;44.804;20.476;2023-05-21T00:49:22;20.30;55.37
68867;SHT30;56451;44.804;20.476;2023-05-21T00:51:49;20.30;55.28
68867;SHT30;56451;44.804;20.476;2023-05-21T00:54:16;20.25;55.30
68867;SHT30;56451;44.804;20.476;2023-05-21T00:56:43;20.23;55.34
68867;SHT30;56451;44.804;20.476;2023-05-21T00:59:10;20.25;55.29
68867;SHT30;56451;44.804;20.476;2023-05-21T01:01:36;20.27;55.15
68867;SHT30;56451;44.804;20.476;2023-05-21T01:04:02;20.24;55.23
68867;SHT30;56451;44.804;20.476;2023-05-21T01:06:29;20.25;55.36
68867;SHT30;56451;44.804;20.476;2023-05-21T01:08:55;20.30;55.31
68867;SHT30;56451;44.804;20.476;2023-05-21T01:11:33;20.31;55.31
68867;SHT30;56451;44.804;20.476;2023-05-21T01:14:01;20.34;55.25
68867;SHT30;56451;44.804;20.476;2023-05-21T01:16:28;20.31;55.23
68867;SHT30;56451;44.804;20.476;2023-05-21T01:18:56;20.31;55.14
68867;SHT30;56451;44.804;20.476;2023-05-21T01:21:24;20.30;55.22
68867;SHT30;56451;44.804;20.476;2023-05-21T01:23:51;20.31;55.21
68867;SHT30;56451;44.804;20.476;2023-05-21T01:26:17;20.31;55.31
68867;SHT30;56451;44.804;20.476;2023-05-21T01:28:43;20.30;55.37
68867;SHT30;56451;44.804;20.476;2023-05-21T01:31:19;20.25;55.58
68867;SHT30;56451;44.804;20.476;2023-05-21T01:33:49;20.27;55.59
68867;SHT30;56451;44.804;20.476;2023-05-21T01:36:24;20.28;55.66
68867;SHT30;56451;44.804;20.476;2023-05-21T01:38:59;20.23;55.78
68867;SHT30;56451;44.804;20.476;2023-05-21T01:41:28;20.21;55.84
68867;SHT30;56451;44.804;20.476;2023-05-21T01:43:57;20.17;55.91
68867;SHT30;56451;44.804;20.476;2023-05-21T01:46:26;20.17;56.05
68867;SHT30;56451;44.804;20.476;2023-05-21T01:48:55;20.16;56.07
68867;SHT30;56451;44.804;20.476;2023-05-21T01:51:22;20.16;56.09
68867;SHT30;56451;44.804;20.476;2023-05-21T01:53:49;20.20;56.12
68867;SHT30;56451;44.804;20.476;2023-05-21T01:56:15;20.23;55.97
68867;SHT30;56451;44.804;20.476;2023-05-21T01:58:41;20.20;56.07
68867;SHT30;56451;44.804;20.476;2023-05-21T02:01:08;20.17;56.13
68867;SHT30;56451;44.804;20.476;2023-05-21T02:03:34;20.20;56.13
68867;SHT30;56451;44.804;20.476;2023-05-21T02:06:00;20.24;55.96
68867;SHT30;56451;44.804;20.476;2023-05-21T02:08:26;20.27;55.98
68867;SHT30;56451;44.804;20.476;2023-05-21T02:10:53;20.27;56.00
68867;SHT30;56451;44.804;20.476;2023-05-21T02:13:20;20.24;56.06
68867;SHT30;56451;44.804;20.476;2023-05-21T02:15:47;20.25;56.07
68867;SHT30;56451;44.804;20.476;2023-05-21T02:18:13;20.25;56.07
68867;SHT30;56451;44.804;20.476;2023-05-21T02:20:48;20.27;56.07
68867;SHT30;56451;44.804;20.476;2023-05-21T02:23:14;20.31;55.99
68867;SHT30;56451;44.804;20.476;2023-05-21T02:25:40;20.33;55.97
68867;SHT30;56451;44.804;20.476;2023-05-21T02:28:06;20.31;55.92
68867;SHT30;56451;44.804;20.476;2023-05-21T02:30:32;20.33;55.78
68867;SHT30;56451;44.804;20.476;2023-05-21T02:32:58;20.31;55.84
68867;SHT30;56451;44.804;20.476;2023-05-21T02:35:24;20.28;55.84
68867;SHT30;56451;44.804;20.476;2023-05-21T02:37:50;20.30;55.83
68867;SHT30;56451;44.804;20.476;2023-05-21T02:40:16;20.25;55.78
68867;SHT30;56451;44.804;20.476;2023-05-21T02:42:42;20.27;55.73
68867;SHT30;56451;44.804;20.476;2023-05-21T02:45:12;20.30;55.82
68867;SHT30;56451;44.804;20.476;2023-05-21T02:47:40;20.28;55.74
68867;SHT30;56451;44.804;20.476;2023-05-21T02:50:07;20.27;55.77
68867;SHT30;56451;44.804;20.476;2023-05-21T02:52:38;20.31;55.75
68867;SHT30;56451;44.804;20.476;2023-05-21T02:55:04;20.30;55.74
68867;SHT30;56451;44.804;20.476;2023-05-21T02:57:30;20.31;55.83
68867;SHT30;56451;44.804;20.476;2023-05-21T02:59:57;20.30;55.74
68867;SHT30;56451;44.804;20.476;2023-05-21T03:02:23;20.31;55.75
68867;SHT30;56451;44.804;20.476;2023-05-21T03:04:49;20.25;55.86
68867;SHT30;56451;44.804;20.476;2023-05-21T03:07:16;20.23;55.90
68867;SHT30;56451;44.804;20.476;2023-05-21T03:09:45;20.23;55.97
68867;SHT30;56451;44.804;20.476;2023-05-21T03:12:11;20.23;56.09
68867;SHT30;56451;44.804;20.476;2023-05-21T03:14:38;20.20;56.24
68867;SHT30;56451;44.804;20.476;2023-05-21T03:17:04;20.23;56.17
68867;SHT30;56451;44.804;20.476;2023-05-21T03:19:31;20.24;56.21
68867;SHT30;56451;44.804;20.476;2023-05-21T03:22:02;20.27;56.18
68867;SHT30;56451;44.804;20.476;2023-05-21T03:24:28;20.25;56.17
68867;SHT30;56451;44.804;20.476;2023-05-21T03:26:59;20.24;56.20
68867;SHT30;56451;44.804;20.476;2023-05-21T03:29:26;20.25;56.24
68867;SHT30;56451;44.804;20.476;2023-05-21T03:31:53;20.27;56.30
68867;SHT30;56451;44.804;20.476;2023-05-21T03:34:20;20.21;56.41
68867;SHT30;56451;44.804;20.476;2023-05-21T03:36:47;20.23;56.44
68867;SHT30;56451;44.804;20.476;2023-05-21T03:39:15;20.24;56.43
68867;SHT30;56451;44.804;20.476;2023-05-21T03:41:41;20.23;56.45
68867;SHT30;56451;44.804;20.476;2023-05-21T03:44:12;20.24;56.51
68867;SHT30;56451;44.804;20.476;2023-05-21T03:47:10;20.24;56.58
68867;SHT30;56451;44.804;20.476;2023-05-21T03:49:36;20.23;56.62
68867;SHT30;56451;44.804;20.476;2023-05-21T03:52:03;20.25;56.67
68867;SHT30;56451;44.804;20.476;2023-05-21T03:54:29;20.27;56.63
68867;SHT30;56451;44.804;20.476;2023-05-21T03:56:59;20.28;56.62
68867;SHT30;56451;44.804;20.476;2023-05-21T03:59:26;20.30;56.66
68867;SHT30;56451;44.804;20.476;2023-05-21T04:01:53;20.33;56.65
68867;SHT30;56451;44.804;20.476;2023-05-21T04:04:18;20.33;56.64
68867;SHT30;56451;44.804;20.476;2023-05-21T04:06:44;20.33;56.72
68867;SHT30;56451;44.804;20.476;2023-05-21T04:09:11;20.31;56.80
68867;SHT30;56451;44.804;20.476;2023-05-21T04:11:37;20.33;56.94
68867;SHT30;56451;44.804;20.476;2023-05-21T04:14:03;20.31;56.93
68867;SHT30;56451;44.804;20.476;2023-05-21T04:16:29;20.35;56.87
68867;SHT30;56451;44.804;20.476;2023-05-21T04:18:55;20.40;56.78
68867;SHT30;56451;44.804;20.476;2023-05-21T04:21:24;20.42;56.77
68867;SHT30;56451;44.804;20.476;2023-05-21T04:23:50;20.44;56.66
68867;SHT30;56451;44.804;20.476;2023-05-21T04:26:29;20.42;56.68
68867;SHT30;56451;44.804;20.476;2023-05-21T04:28:58;20.47;56.56
68867;SHT30;56451;44.804;20.476;2023-05-21T04:31:29;20.45;56.42
68867;SHT30;56451;44.804;20.476;2023-05-21T04:33:57;20.47;56.29
68867;SHT30;56451;44.804;20.476;2023-05-21T04:36:24;20.48;56.06
68867;SHT30;56451;44.804;20.476;2023-05-21T04:38:50;20.49;56.03
68867;SHT30;56451;44.804;20.476;2023-05-21T04:41:16;20.51;56.04
68867;SHT30;56451;44.804;20.476;2023-05-21T04:43:43;20.54;55.87
68867;SHT30;56451;44.804;20.476;2023-05-21T04:46:10;20.58;55.75
68867;SHT30;56451;44.804;20.476;2023-05-21T04:48:36;20.58;55.83
68867;SHT30;56451;44.804;20.476;2023-05-21T04:51:02;20.62;55.77
68867;SHT30;56451;44.804;20.476;2023-05-21T04:53:30;20.59;55.88
68867;SHT30;56451;44.804;20.476;2023-05-21T04:55:56;20.58;55.91
68867;SHT30;56451;44.804;20.476;2023-05-21T04:58:24;20.62;55.73
68867;SHT30;56451;44.804;20.476;2023-05-21T05:00:50;20.61;55.78
68867;SHT30;56451;44.804;20.476;2023-05-21T05:03:18;20.61;55.77
68867;SHT30;56451;44.804;20.476;2023-05-21T05:05:45;20.62;55.69
68867;SHT30;56451;44.804;20.476;2023-05-21T05:08:11;20.67;55.51
68867;SHT30;56451;44.804;20.476;2023-05-21T05:10:37;20.71;55.35
68867;SHT30;56451;44.804;20.476;2023-05-21T05:13:04;20.73;55.24
68867;SHT30;56451;44.804;20.476;2023-05-21T05:15:30;20.76;55.11
68867;SHT30;56451;44.804;20.476;2023-05-21T05:17:57;20.78;54.95
68867;SHT30;56451;44.804;20.476;2023-05-21T05:20:23;20.81;54.95
68867;SHT30;56451;44.804;20.476;2023-05-21T05:22:49;20.85;54.50
68867;SHT30;56451;44.804;20.476;2023-05-21T05:25:16;20.85;54.42
68867;SHT30;56451;44.804;20.476;2023-05-21T05:27:42;20.89;54.28
68867;SHT30;56451;44.804;20.476;2023-05-21T05:30:08;20.90;53.90
68867;SHT30;56451;44.804;20.476;2023-05-21T05:32:34;20.93;53.84
68867;SHT30;56451;44.804;20.476;2023-05-21T05:35:01;20.99;53.65
68867;SHT30;56451;44.804;20.476;2023-05-21T05:37:27;21.06;53.18
68867;SHT30;56451;44.804;20.476;2023-05-21T05:39:54;21.10;52.92
68867;SHT30;56451;44.804;20.476;2023-05-21T05:42:19;21.18;52.77
68867;SHT30;56451;44.804;20.476;2023-05-21T05:44:46;21.20;52.72
68867;SHT30;56451;44.804;20.476;2023-05-21T05:47:12;21.20;52.85
68867;SHT30;56451;44.804;20.476;2023-05-21T05:49:38;21.27;52.84
68867;SHT30;56451;44.804;20.476;2023-05-21T05:52:05;21.30;52.82
68867;SHT30;56451;44.804;20.476;2023-05-21T05:54:32;21.39;52.80
68867;SHT30;56451;44.804;20.476;2023-05-21T05:56:57;21.46;52.42
68867;SHT30;56451;44.804;20.476;2023-05-21T05:59:25;21.53;52.15
68867;SHT30;56451;44.804;20.476;2023-05-21T06:01:55;21.57;52.12
68867;SHT30;56451;44.804;20.476;2023-05-21T06:04:21;21.64;52.01
68867;SHT30;56451;44.804;20.476;2023-05-21T06:06:47;21.67;51.85
68867;SHT30;56451;44.804;20.476;2023-05-21T06:09:13;21.75;51.75
68867;SHT30;56451;44.804;20.476;2023-05-21T06:11:40;21.84;51.51
68867;SHT30;56451;44.804;20.476;2023-05-21T06:14:06;21.89;51.47
68867;SHT30;56451;44.804;20.476;2023-05-21T06:16:32;21.95;50.69
68867;SHT30;56451;44.804;20.476;2023-05-21T06:19:00;22.12;50.33
68867;SHT30;56451;44.804;20.476;2023-05-21T06:21:26;22.13;50.34
68867;SHT30;56451;44.804;20.476;2023-05-21T06:23:52;22.20;50.05
68867;SHT30;56451;44.804;20.476;2023-05-21T06:26:19;22.23;50.06
68867;SHT30;56451;44.804;20.476;2023-05-21T06:28:46;22.28;49.86
68867;SHT30;56451;44.804;20.476;2023-05-21T06:31:13;22.36;49.99
68867;SHT30;56451;44.804;20.476;2023-05-21T06:33:39;22.43;49.25
68867;SHT30;56451;44.804;20.476;2023-05-21T06:36:06;22.50;48.88
68867;SHT30;56451;44.804;20.476;2023-05-21T06:38:32;22.61;48.63
68867;SHT30;56451;44.804;20.476;2023-05-21T06:41:01;22.66;48.75
68867;SHT30;56451;44.804;20.476;2023-05-21T06:43:45;22.73;48.46
68867;SHT30;56451;44.804;20.476;2023-05-21T06:46:34;22.84;48.05
68867;SHT30;56451;44.804;20.476;2023-05-21T06:49:00;22.91;47.83
68867;SHT30;56451;44.804;20.476;2023-05-21T06:51:26;23.02;47.13
68867;SHT30;56451;44.804;20.476;2023-05-21T06:53:53;23.08;46.38
68867;SHT30;56451;44.804;20.476;2023-05-21T06:56:19;23.14;46.02
68867;SHT30;56451;44.804;20.476;2023-05-21T06:58:46;23.23;46.12
68867;SHT30;56451;44.804;20.476;2023-05-21T07:01:13;23.31;44.73
68867;SHT30;56451;44.804;20.476;2023-05-21T07:03:39;23.38;44.06
68867;SHT30;56451;44.804;20.476;2023-05-21T07:06:07;23.41;44.11
68867;SHT30;56451;44.804;20.476;2023-05-21T07:08:33;23.48;44.19
68867;SHT30;56451;44.804;20.476;2023-05-21T07:11:00;23.48;44.77
68867;SHT30;56451;44.804;20.476;2023-05-21T07:13:26;23.48;44.23
68867;SHT30;56451;44.804;20.476;2023-05-21T07:15:52;23.55;44.07
68867;SHT30;56451;44.804;20.476;2023-05-21T07:18:18;23.60;43.64
68867;SHT30;56451;44.804;20.476;2023-05-21T07:20:45;23.63;43.94
68867;SHT30;56451;44.804;20.476;2023-05-21T07:23:13;23.66;43.43
68867;SHT30;56451;44.804;20.476;2023-05-21T07:25:40;23.69;43.27
68867;SHT30;56451;44.804;20.476;2023-05-21T07:28:05;23.69;43.43
68867;SHT30;56451;44.804;20.476;2023-05-21T07:30:31;23.77;43.65
68867;SHT30;56451;44.804;20.476;2023-05-21T07:32:57;23.83;43.99
68867;SHT30;56451;44.804;20.476;2023-05-21T07:35:23;23.90;43.02
68867;SHT30;56451;44.804;20.476;2023-05-21T07:37:49;23.97;42.60
68867;SHT30;56451;44.804;20.476;2023-05-21T07:40:15;23.96;42.78
68867;SHT30;56451;44.804;20.476;2023-05-21T07:42:42;23.96;43.11
68867;SHT30;56451;44.804;20.476;2023-05-21T07:45:10;24.04;42.73
68867;SHT30;56451;44.804;20.476;2023-05-21T07:47:40;24.07;42.43
68867;SHT30;56451;44.804;20.476;2023-05-21T07:50:06;24.13;42.97
68867;SHT30;56451;44.804;20.476;2023-05-21T07:52:32;24.14;42.68
68867;SHT30;56451;44.804;20.476;2023-05-21T07:55:00;24.18;42.84
68867;SHT30;56451;44.804;20.476;2023-05-21T07:57:29;24.18;42.77
68867;SHT30;56451;44.804;20.476;2023-05-21T07:59:58;24.16;43.25
68867;SHT30;56451;44.804;20.476;2023-05-21T08:02:25;24.27;43.31
68867;SHT30;56451;44.804;20.476;2023-05-21T08:04:51;24.28;43.27
68867;SHT30;56451;44.804;20.476;2023-05-21T08:07:17;24.32;43.47
68867;SHT30;56451;44.804;20.476;2023-05-21T08:09:44;24.38;42.47
68867;SHT30;56451;44.804;20.476;2023-05-21T08:12:10;24.39;42.21
68867;SHT30;56451;44.804;20.476;2023-05-21T08:14:41;24.37;42.26
68867;SHT30;56451;44.804;20.476;2023-05-21T08:17:10;24.37;41.78
68867;SHT30;56451;44.804;20.476;2023-05-21T08:19:37;24.42;41.22
68867;SHT30;56451;44.804;20.476;2023-05-21T08:22:04;24.42;41.30
68867;SHT30;56451;44.804;20.476;2023-05-21T08:24:32;24.47;41.85
68867;SHT30;56451;44.804;20.476;2023-05-21T08:26:58;24.47;41.44
68867;SHT30;56451;44.804;20.476;2023-05-21T08:29:24;24.47;41.22
68867;SHT30;56451;44.804;20.476;2023-05-21T08:31:51;24.49;41.68
68867;SHT30;56451;44.804;20.476;2023-05-21T08:34:17;24.47;41.85
68867;SHT30;56451;44.804;20.476;2023-05-21T08:36:57;24.45;42.29
68867;SHT30;56451;44.804;20.476;2023-05-21T08:40:04;24.48;42.14
68867;SHT30;56451;44.804;20.476;2023-05-21T08:42:43;24.48;42.44
68867;SHT30;56451;44.804;20.476;2023-05-21T08:45:20;24.49;42.48
68867;SHT30;56451;44.804;20.476;2023-05-21T08:47:46;24.51;42.55
68867;SHT30;56451;44.804;20.476;2023-05-21T08:50:16;24.51;42.23
68867;SHT30;56451;44.804;20.476;2023-05-21T08:52:46;24.52;42.51
68867;SHT30;56451;44.804;20.476;2023-05-21T08:55:12;24.52;42.26
68867;SHT30;56451;44.804;20.476;2023-05-21T08:57:41;24.57;42.66
68867;SHT30;56451;44.804;20.476;2023-05-21T09:10:48;24.49;43.19
68867;SHT30;56451;44.804;20.476;2023-05-21T09:13:20;24.52;42.90
68867;SHT30;56451;44.804;20.476;2023-05-21T09:15:48;24.54;42.95
68867;SHT30;56451;44.804;20.476;2023-05-21T09:18:15;24.59;42.56
68867;SHT30;56451;44.804;20.476;2023-05-21T09:21:25;24.62;42.49
68867;SHT30;56451;44.804;20.476;2023-05-21T09:23:58;24.71;42.65
68867;SHT30;56451;44.804;20.476;2023-05-21T09:26:25;24.75;42.07
68867;SHT30;56451;44.804;20.476;2023-05-21T09:28:58;24.80;41.74
68867;SHT30;56451;44.804;20.476;2023-05-21T09:31:25;24.83;42.22
68867;SHT30;56451;44.804;20.476;2023-05-21T09:33:52;24.86;42.27
68867;SHT30;56451;44.804;20.476;2023-05-21T09:36:20;24.93;41.75
68867;SHT30;56451;44.804;20.476;2023-05-21T09:38:50;24.97;40.57
68867;SHT30;56451;44.804;20.476;2023-05-21T09:41:18;25.03;40.73
68867;SHT30;56451;44.804;20.476;2023-05-21T09:43:45;25.15;39.73
68867;SHT30;56451;44.804;20.476;2023-05-21T09:46:14;25.16;40.16
68867;SHT30;56451;44.804;20.476;2023-05-21T09:48:41;25.24;40.50
68867;SHT30;56451;44.804;20.476;2023-05-21T09:51:15;25.26;39.31
68867;SHT30;56451;44.804;20.476;2023-05-21T09:53:52;25.27;39.97
68867;SHT30;56451;44.804;20.476;2023-05-21T09:56:26;25.26;40.10
68867;SHT30;56451;44.804;20.476;2023-05-21T09:58:55;25.34;39.98
68867;SHT30;56451;44.804;20.476;2023-05-21T10:01:22;25.45;39.83
68867;SHT30;56451;44.804;20.476;2023-05-21T10:03:56;25.51;39.79
68867;SHT30;56451;44.804;20.476;2023-05-21T10:06:26;25.57;40.32
68867;SHT30;56451;44.804;20.476;2023-05-21T10:08:58;25.63;40.26
68867;SHT30;56451;44.804;20.476;2023-05-21T10:11:26;25.67;38.86
68867;SHT30;56451;44.804;20.476;2023-05-21T10:14:05;25.67;39.15
68867;SHT30;56451;44.804;20.476;2023-05-21T10:16:35;25.70;39.06
68867;SHT30;56451;44.804;20.476;2023-05-21T10:19:02;25.75;37.93
68867;SHT30;56451;44.804;20.476;2023-05-21T10:21:30;25.81;37.92
68867;SHT30;56451;44.804;20.476;2023-05-21T10:23:58;25.86;38.16
68867;SHT30;56451;44.804;20.476;2023-05-21T10:26:27;25.89;38.40
68867;SHT30;56451;44.804;20.476;2023-05-21T10:28:55;25.93;38.76
68867;SHT30;56451;44.804;20.476;2023-05-21T10:31:22;25.99;38.89
68867;SHT30;56451;44.804;20.476;2023-05-21T10:33:48;26.02;38.67
68867;SHT30;56451;44.804;20.476;2023-05-21T10:36:16;26.05;38.83
68867;SHT30;56451;44.804;20.476;2023-05-21T10:38:43;26.06;38.48
68867;SHT30;56451;44.804;20.476;2023-05-21T10:41:11;26.03;38.58
68867;SHT30;56451;44.804;20.476;2023-05-21T10:43:47;26.05;38.53
68867;SHT30;56451;44.804;20.476;2023-05-21T10:59:44;26.16;36.37
68867;SHT30;56451;44.804;20.476;2023-05-21T11:02:13;26.20;36.50
68867;SHT30;56451;44.804;20.476;2023-05-21T11:04:40;26.25;35.86
68867;SHT30;56451;44.804;20.476;2023-05-21T11:07:08;26.26;36.19
68867;SHT30;56451;44.804;20.476;2023-05-21T11:09:34;26.30;35.29
68867;SHT30;56451;44.804;20.476;2023-05-21T11:12:00;26.33;35.96
68867;SHT30;56451;44.804;20.476;2023-05-21T11:14:38;26.41;33.99
68867;SHT30;56451;44.804;20.476;2023-05-21T11:19:42;26.46;35.01
68867;SHT30;56451;44.804;20.476;2023-05-21T11:22:23;26.50;34.88
68867;SHT30;56451;44.804;20.476;2023-05-21T11:24:54;26.53;34.59
68867;SHT30;56451;44.804;20.476;2023-05-21T11:27:48;26.60;34.97
68867;SHT30;56451;44.804;20.476;2023-05-21T11:30:16;26.64;34.49
68867;SHT30;56451;44.804;20.476;2023-05-21T11:38:11;26.80;35.98
68867;SHT30;56451;44.804;20.476;2023-05-21T11:40:37;26.80;34.62
68867;SHT30;56451;44.804;20.476;2023-05-21T11:43:10;26.77;34.63
68867;SHT30;56451;44.804;20.476;2023-05-21T11:45:36;26.78;34.44
68867;SHT30;56451;44.804;20.476;2023-05-21T11:48:04;26.76;35.53
68867;SHT30;56451;44.804;20.476;2023-05-21T11:50:31;26.73;35.53
68867;SHT30;56451;44.804;20.476;2023-05-21T11:52:58;26.69;34.68
68867;SHT30;56451;44.804;20.476;2023-05-21T11:55:24;26.67;36.13
68867;SHT30;56451;44.804;20.476;2023-05-21T11:57:52;26.71;34.42
68867;SHT30;56451;44.804;20.476;2023-05-21T12:00:18;26.74;34.89
68867;SHT30;56451;44.804;20.476;2023-05-21T12:02:49;26.74;34.47
68867;SHT30;56451;44.804;20.476;2023-05-21T12:05:15;26.73;33.44
68867;SHT30;56451;44.804;20.476;2023-05-21T12:07:41;26.84;34.50
68867;SHT30;56451;44.804;20.476;2023-05-21T12:10:11;26.87;32.95
68867;SHT30;56451;44.804;20.476;2023-05-21T12:12:37;26.84;34.75
68867;SHT30;56451;44.804;20.476;2023-05-21T12:15:04;26.84;35.54
68867;SHT30;56451;44.804;20.476;2023-05-21T12:17:31;26.83;35.40
68867;SHT30;56451;44.804;20.476;2023-05-21T12:19:57;26.87;34.29
68867;SHT30;56451;44.804;20.476;2023-05-21T12:22:24;26.88;34.22
68867;SHT30;56451;44.804;20.476;2023-05-21T12:24:53;26.90;33.29
68867;SHT30;56451;44.804;20.476;2023-05-21T12:27:20;26.94;33.63
68867;SHT30;56451;44.804;20.476;2023-05-21T12:29:48;27.02;31.34
68867;SHT30;56451;44.804;20.476;2023-05-21T12:32:16;27.07;31.43
68867;SHT30;56451;44.804;20.476;2023-05-21T12:34:47;27.11;33.26
68867;SHT30;56451;44.804;20.476;2023-05-21T12:37:28;27.16;32.47
68867;SHT30;56451;44.804;20.476;2023-05-21T12:40:02;27.19;31.15
68867;SHT30;56451;44.804;20.476;2023-05-21T12:42:35;27.25;32.94
68867;SHT30;56451;44.804;20.476;2023-05-21T12:45:06;27.28;32.76
68867;SHT30;56451;44.804;20.476;2023-05-21T12:47:32;27.29;31.75
68867;SHT30;56451;44.804;20.476;2023-05-21T12:50:06;27.32;30.90
68867;SHT30;56451;44.804;20.476;2023-05-21T12:52:32;27.31;31.37
68867;SHT30;56451;44.804;20.476;2023-05-21T12:54:59;27.34;31.05
68867;SHT30;56451;44.804;20.476;2023-05-21T12:57:29;27.34;33.67
68867;SHT30;56451;44.804;20.476;2023-05-21T13:00:00;27.41;31.02
68867;SHT30;56451;44.804;20.476;2023-05-21T13:02:28;27.38;33.62
68867;SHT30;56451;44.804;20.476;2023-05-21T13:04:56;27.41;32.46
68867;SHT30;56451;44.804;20.476;2023-05-21T13:07:23;27.36;32.37
68867;SHT30;56451;44.804;20.476;2023-05-21T13:09:51;27.43;32.45
68867;SHT30;56451;44.804;20.476;2023-05-21T13:12:21;27.42;32.42
68867;SHT30;56451;44.804;20.476;2023-05-21T13:14:49;27.42;32.54
68867;SHT30;56451;44.804;20.476;2023-05-21T13:17:16;27.49;31.12
68867;SHT30;56451;44.804;20.476;2023-05-21T13:19:42;27.59;30.89
68867;SHT30;56451;44.804;20.476;2023-05-21T13:22:08;27.63;31.19
68867;SHT30;56451;44.804;20.476;2023-05-21T13:24:36;27.65;30.28
68867;SHT30;56451;44.804;20.476;2023-05-21T13:27:02;27.69;30.80
68867;SHT30;56451;44.804;20.476;2023-05-21T13:29:28;27.76;31.13
68867;SHT30;56451;44.804;20.476;2023-05-21T13:31:54;27.82;30.06
68867;SHT30;56451;44.804;20.476;2023-05-21T13:34:20;27.90;31.33
68867;SHT30;56451;44.804;20.476;2023-05-21T13:36:46;27.98;30.09
68867;SHT30;56451;44.804;20.476;2023-05-21T13:39:12;27.97;31.19
68867;SHT30;56451;44.804;20.476;2023-05-21T13:41:38;28.04;29.27
68867;SHT30;56451;44.804;20.476;2023-05-21T13:44:04;28.03;29.68
68867;SHT30;56451;44.804;20.476;2023-05-21T13:46:30;28.07;28.38
68867;SHT30;56451;44.804;20.476;2023-05-21T13:48:56;28.07;30.36
68867;SHT30;56451;44.804;20.476;2023-05-21T13:51:22;28.11;29.47
68867;SHT30;56451;44.804;20.476;2023-05-21T13:53:48;28.11;29.66
68867;SHT30;56451;44.804;20.476;2023-05-21T13:56:14;28.17;29.51
68867;SHT30;56451;44.804;20.476;2023-05-21T13:58:40;28.20;29.60
68867;SHT30;56451;44.804;20.476;2023-05-21T14:01:06;28.21;31.04
68867;SHT30;56451;44.804;20.476;2023-05-21T14:03:32;28.27;30.23
68867;SHT30;56451;44.804;20.476;2023-05-21T14:05:59;28.27;32.77
68867;SHT30;56451;44.804;20.476;2023-05-21T14:08:25;28.29;33.59
68867;SHT30;56451;44.804;20.476;2023-05-21T14:10:53;28.32;33.08
68867;SHT30;56451;44.804;20.476;2023-05-21T14:13:19;28.42;33.76
68867;SHT30;56451;44.804;20.476;2023-05-21T14:15:45;28.41;33.84
68867;SHT30;56451;44.804;20.476;2023-05-21T14:18:13;28.40;34.01
68867;SHT30;56451;44.804;20.476;2023-05-21T14:20:39;28.34;33.71
68867;SHT30;56451;44.804;20.476;2023-05-21T14:23:05;28.34;33.60
68867;SHT30;56451;44.804;20.476;2023-05-21T14:25:31;28.28;33.09
68867;SHT30;56451;44.804;20.476;2023-05-21T14:27:57;28.18;33.48
68867;SHT30;56451;44.804;20.476;2023-05-21T14:30:23;28.24;33.71
68867;SHT30;56451;44.804;20.476;2023-05-21T14:32:49;28.21;34.03
68867;SHT30;56451;44.804;20.476;2023-05-21T14:35:15;28.25;33.16
68867;SHT30;56451;44.804;20.476;2023-05-21T14:37:41;28.27;31.22
68867;SHT30;56451;44.804;20.476;2023-05-21T14:40:08;28.27;30.13
68867;SHT30;56451;44.804;20.476;2023-05-21T14:42:34;28.31;29.13
68867;SHT30;56451;44.804;20.476;2023-05-21T14:45:01;28.41;29.66
68867;SHT30;56451;44.804;20.476;2023-05-21T14:47:26;28.48;29.02
68867;SHT30;56451;44.804;20.476;2023-05-21T14:49:53;28.49;30.85
68867;SHT30;56451;44.804;20.476;2023-05-21T14:52:18;28.52;30.52
68867;SHT30;56451;44.804;20.476;2023-05-21T14:54:44;28.51;30.91
68867;SHT30;56451;44.804;20.476;2023-05-21T14:57:11;28.49;28.34
68867;SHT30;56451;44.804;20.476;2023-05-21T14:59:36;28.56;29.38
68867;SHT30;56451;44.804;20.476;2023-05-21T15:02:03;28.58;29.51
68867;SHT30;56451;44.804;20.476;2023-05-21T15:04:29;28.62;28.27
68867;SHT30;56451;44.804;20.476;2023-05-21T15:06:55;28.63;29.33
68867;SHT30;56451;44.804;20.476;2023-05-21T15:09:21;28.72;28.37
68867;SHT30;56451;44.804;20.476;2023-05-21T15:11:47;28.79;27.62
68867;SHT30;56451;44.804;20.476;2023-05-21T15:14:17;28.89;27.21
68867;SHT30;56451;44.804;20.476;2023-05-21T15:16:43;28.98;29.03
68867;SHT30;56451;44.804;20.476;2023-05-21T15:19:10;28.96;29.22
68867;SHT30;56451;44.804;20.476;2023-05-21T15:21:36;29.06;27.24
68867;SHT30;56451;44.804;20.476;2023-05-21T15:24:03;29.13;27.17
68867;SHT30;56451;44.804;20.476;2023-05-21T15:26:29;29.16;27.51
68867;SHT30;56451;44.804;20.476;2023-05-21T15:28:55;29.20;27.89
68867;SHT30;56451;44.804;20.476;2023-05-21T15:31:21;29.29;26.63
68867;SHT30;56451;44.804;20.476;2023-05-21T15:33:47;29.29;26.60
68867;SHT30;56451;44.804;20.476;2023-05-21T15:36:13;29.33;27.71
68867;SHT30;56451;44.804;20.476;2023-05-21T15:38:39;29.35;26.03
68867;SHT30;56451;44.804;20.476;2023-05-21T15:41:05;29.37;27.29
68867;SHT30;56451;44.804;20.476;2023-05-21T15:43:31;29.30;28.41
68867;SHT30;56451;44.804;20.476;2023-05-21T15:45:57;29.26;27.92
68867;SHT30;56451;44.804;20.476;2023-05-21T15:48:24;29.21;26.93
68867;SHT30;56451;44.804;20.476;2023-05-21T15:50:50;29.10;29.68